Time;durP1;ratioP1;P1;durP2;ratioP2;P2;SDS_P1;SDS_P2;PMS_P1;PMS_P2;Temp;Humidity;BMP_temperature;BMP_pressure;BME280_temperature;BME280_humidity;BME280_pressure;Samples;Min_cycle;Max_cycle;Signal;HPM_P1;HPM_P2
2023/04/09 00:01:09;;;;;;;8.63;7.82;;;5.80;99.90;;;;;;5049384;28;20242;-76
2023/04/09 00:03:36;;;;;;;8.10;7.40;;;5.80;99.90;;;;;;5044472;28;20591;-76
2023/04/09 00:06:02;;;;;;;8.88;8.07;;;5.80;99.90;;;;;;5048666;28;20191;-75
2023/04/09 00:08:28;;;;;;;9.75;8.80;;;5.80;99.90;;;;;;5044090;28;20294;-76
2023/04/09 00:10:54;;;;;;;8.57;7.78;;;5.80;99.90;;;;;;5049404;28;20275;-74
2023/04/09 00:13:20;;;;;;;8.38;7.57;;;5.80;99.90;;;;;;5036632;28;20184;-76
2023/04/09 00:15:46;;;;;;;8.75;7.88;;;5.80;99.90;;;;;;5044999;28;20610;-76
2023/04/09 00:18:13;;;;;;;9.15;8.25;;;5.80;99.90;;;;;;5046647;28;20192;-76
2023/04/09 00:20:39;;;;;;;9.68;8.68;;;5.70;99.90;;;;;;5037186;28;20258;-76
2023/04/09 00:23:05;;;;;;;8.93;8.13;;;5.70;99.90;;;;;;5049119;28;20203;-76
2023/04/09 00:25:30;;;;;;;9.98;8.98;;;5.60;99.90;;;;;;5050547;28;20181;-76
2023/04/09 00:27:56;;;;;;;10.43;9.32;;;5.60;99.90;;;;;;5052673;28;20211;-76
2023/04/09 00:30:22;;;;;;;10.18;9.18;;;5.60;99.90;;;;;;5044843;28;20279;-76
2023/04/09 00:32:48;;;;;;;9.18;8.27;;;5.60;99.90;;;;;;5045715;28;20171;-75
2023/04/09 00:35:16;;;;;;;9.60;8.70;;;5.60;99.90;;;;;;5033308;28;20179;-75
2023/04/09 00:37:42;;;;;;;10.02;9.02;;;5.50;99.90;;;;;;5052123;28;20179;-76
2023/04/09 00:40:08;;;;;;;9.57;8.68;;;5.50;99.90;;;;;;5049972;28;22218;-76
2023/04/09 00:42:34;;;;;;;10.13;9.13;;;5.50;99.90;;;;;;5048597;28;20194;-75
2023/04/09 00:45:00;;;;;;;10.50;9.50;;;5.50;99.90;;;;;;5049124;28;20222;-76
2023/04/09 00:47:28;;;;;;;9.68;8.77;;;5.50;99.90;;;;;;5045842;28;20179;-75
2023/04/09 00:49:54;;;;;;;9.90;8.90;;;5.50;99.90;;;;;;5047082;28;20231;-75
2023/04/09 00:52:20;;;;;;;9.70;8.55;;;5.50;99.90;;;;;;5054586;28;20187;-74
2023/04/09 00:54:47;;;;;;;9.05;8.25;;;5.50;99.90;;;;;;5048950;28;20291;-75
2023/04/09 00:57:14;;;;;;;10.52;9.52;;;5.50;99.90;;;;;;5050458;28;20229;-76
2023/04/09 00:59:40;;;;;;;10.70;9.63;;;5.40;99.90;;;;;;5047660;28;20176;-76
2023/04/09 01:02:06;;;;;;;9.52;8.65;;;5.40;99.90;;;;;;5052074;28;20191;-76
2023/04/09 01:04:32;;;;;;;9.10;8.30;;;5.40;99.90;;;;;;5049849;28;20214;-75
2023/04/09 01:07:04;;;;;;;10.07;9.07;;;5.50;99.90;;;;;;5045781;28;20527;-75
2023/04/09 01:09:38;;;;;;;9.23;8.32;;;5.40;99.90;;;;;;5045093;28;20199;-76
2023/04/09 01:12:25;;;;;;;9.70;8.70;;;5.40;99.90;;;;;;5049717;28;20179;-76
2023/04/09 01:15:12;;;;;;;9.60;8.68;;;5.30;99.90;;;;;;5053079;28;20402;-75
2023/04/09 01:17:50;;;;;;;10.15;9.25;;;5.10;99.90;;;;;;5054772;28;20222;-75
2023/04/09 01:20:48;;;;;;;9.88;8.95;;;5.00;99.90;;;;;;5047431;28;20191;-75
2023/04/09 01:23:28;;;;;;;10.77;9.63;;;4.90;99.90;;;;;;5048960;28;20212;-76
2023/04/09 01:26:12;;;;;;;10.73;9.25;;;4.70;99.90;;;;;;5050558;28;20180;-75
2023/04/09 01:28:40;;;;;;;10.23;9.20;;;4.60;99.90;;;;;;5050279;28;20236;-76
2023/04/09 01:31:15;;;;;;;11.65;9.35;;;4.40;99.90;;;;;;5051176;28;20172;-75
2023/04/09 01:33:42;;;;;;;11.05;9.10;;;4.30;99.90;;;;;;5033941;28;20191;-75
2023/04/09 01:36:08;;;;;;;10.10;9.20;;;4.20;99.90;;;;;;5033999;28;20644;-76
2023/04/09 01:38:41;;;;;;;10.68;9.65;;;4.10;99.90;;;;;;5044225;28;20192;-75
2023/04/09 01:41:09;;;;;;;10.70;9.63;;;4.00;99.90;;;;;;5049106;28;20541;-75
2023/04/09 01:43:37;;;;;;;11.02;9.93;;;3.90;99.90;;;;;;5050309;28;20196;-76
2023/04/09 01:46:03;;;;;;;10.45;9.40;;;3.90;99.90;;;;;;5049961;28;20187;-75
2023/04/09 01:48:30;;;;;;;9.27;8.32;;;3.80;99.90;;;;;;5048360;28;20215;-76
2023/04/09 01:50:57;;;;;;;11.30;9.75;;;3.70;99.90;;;;;;5042480;28;20176;-75
2023/04/09 01:53:23;;;;;;;11.48;10.27;;;3.60;99.90;;;;;;5048571;28;20232;-75
2023/04/09 01:55:49;;;;;;;12.00;9.95;;;3.60;99.90;;;;;;5053175;28;20568;-75
2023/04/09 01:58:14;;;;;;;11.68;9.73;;;3.50;99.90;;;;;;5034613;28;20175;-76
2023/04/09 02:00:46;;;;;;;11.23;10.02;;;3.40;99.90;;;;;;5047089;28;20266;-76
2023/04/09 02:03:26;;;;;;;10.77;9.68;;;3.40;99.90;;;;;;5051059;28;20639;-75
2023/04/09 02:06:13;;;;;;;10.98;9.80;;;3.30;99.90;;;;;;5052116;28;20646;-75
2023/04/09 02:08:45;;;;;;;11.88;10.68;;;3.30;99.90;;;;;;5043287;28;20283;-75
2023/04/09 02:11:13;;;;;;;11.45;10.35;;;3.20;99.90;;;;;;5035548;28;20226;-75
2023/04/09 02:13:40;;;;;;;12.25;10.38;;;3.10;99.90;;;;;;5050483;28;20670;-75
2023/04/09 02:16:07;;;;;;;11.90;10.68;;;3.10;99.90;;;;;;5057254;28;20221;-75
2023/04/09 02:18:33;;;;;;;11.57;10.23;;;3.00;99.90;;;;;;5049555;28;20614;-75
2023/04/09 02:20:59;;;;;;;11.00;9.93;;;3.00;99.90;;;;;;5043610;28;20196;-75
2023/04/09 02:23:28;;;;;;;11.57;10.38;;;2.90;99.90;;;;;;5048331;28;20200;-76
2023/04/09 02:25:54;;;;;;;13.90;11.32;;;3.00;99.90;;;;;;5047349;28;20181;-76
2023/04/09 02:28:19;;;;;;;12.32;11.13;;;2.90;99.90;;;;;;5047607;28;20226;-76
2023/04/09 02:30:45;;;;;;;12.93;10.90;;;2.90;99.90;;;;;;5032134;28;20237;-76
2023/04/09 02:33:10;;;;;;;12.18;10.88;;;3.00;99.90;;;;;;5056102;28;20202;-77
2023/04/09 02:35:36;;;;;;;12.27;11.07;;;2.90;99.90;;;;;;5055148;28;20179;-76
2023/04/09 02:38:02;;;;;;;13.60;12.20;;;2.90;99.90;;;;;;5046249;28;20188;-76
2023/04/09 02:40:28;;;;;;;14.47;12.03;;;2.90;99.90;;;;;;5044894;28;21346;-76
2023/04/09 02:42:54;;;;;;;12.53;11.10;;;2.90;99.90;;;;;;5048707;28;20548;-77
2023/04/09 02:45:19;;;;;;;12.60;10.98;;;2.80;99.90;;;;;;5040023;28;20228;-76
2023/04/09 02:47:45;;;;;;;13.37;11.77;;;2.80;99.90;;;;;;5051021;28;20176;-76
2023/04/09 02:50:10;;;;;;;12.83;11.23;;;2.80;99.90;;;;;;5049235;28;20565;-77
2023/04/09 02:52:36;;;;;;;13.57;10.90;;;2.80;99.90;;;;;;5054325;28;20183;-76
2023/04/09 02:55:02;;;;;;;13.27;10.90;;;2.70;99.90;;;;;;5053041;28;20255;-76
2023/04/09 02:57:27;;;;;;;12.93;10.98;;;2.70;99.90;;;;;;5049988;28;20252;-76
2023/04/09 02:59:53;;;;;;;11.80;10.40;;;2.70;99.90;;;;;;5049851;28;20189;-76
2023/04/09 03:02:19;;;;;;;12.93;11.48;;;2.70;99.90;;;;;;5052076;28;20195;-76
2023/04/09 03:04:44;;;;;;;13.33;11.97;;;2.70;99.90;;;;;;5046830;28;20687;-76
2023/04/09 03:07:10;;;;;;;12.63;11.33;;;2.70;99.90;;;;;;5046689;28;20643;-77
2023/04/09 03:09:36;;;;;;;14.80;12.00;;;2.70;99.90;;;;;;5054302;28;20204;-76
2023/04/09 03:12:01;;;;;;;14.65;11.85;;;2.70;99.90;;;;;;5045053;28;20192;-77
2023/04/09 03:14:27;;;;;;;12.48;11.20;;;2.60;99.90;;;;;;5043343;28;20195;-77
2023/04/09 03:16:53;;;;;;;14.20;12.05;;;2.60;99.90;;;;;;5044243;28;20188;-77
2023/04/09 03:19:18;;;;;;;14.23;11.93;;;2.60;99.90;;;;;;5036258;28;20192;-77
2023/04/09 03:21:45;;;;;;;15.00;12.95;;;2.60;99.90;;;;;;5051933;28;20253;-76
2023/04/09 03:24:11;;;;;;;16.00;12.73;;;2.60;99.90;;;;;;5050822;28;20200;-76
2023/04/09 03:26:37;;;;;;;15.77;12.63;;;2.60;99.90;;;;;;5045556;28;20195;-76
2023/04/09 03:29:03;;;;;;;15.37;12.10;;;2.60;99.90;;;;;;5041694;28;20290;-76
2023/04/09 03:31:29;;;;;;;14.20;12.47;;;2.60;99.90;;;;;;5053066;28;20267;-76
2023/04/09 03:33:54;;;;;;;14.47;12.37;;;2.60;99.90;;;;;;5050573;28;20313;-76
2023/04/09 03:36:20;;;;;;;13.87;12.43;;;2.50;99.90;;;;;;5050425;28;20172;-76
2023/04/09 03:38:45;;;;;;;12.90;11.37;;;2.50;99.90;;;;;;5049510;28;20697;-76
2023/04/09 03:41:11;;;;;;;12.10;10.77;;;2.60;99.90;;;;;;5053354;28;20269;-76
2023/04/09 03:43:37;;;;;;;13.67;11.73;;;2.50;99.90;;;;;;5052510;28;20682;-76
2023/04/09 03:46:11;;;;;;;13.53;11.60;;;2.50;99.90;;;;;;5053746;28;20194;-78
2023/04/09 03:48:36;;;;;;;16.13;11.87;;;2.50;99.90;;;;;;5053368;28;20207;-77
2023/04/09 03:51:02;;;;;;;12.97;11.20;;;2.50;99.90;;;;;;5057522;28;20175;-76
2023/04/09 03:53:28;;;;;;;13.10;10.90;;;2.50;99.90;;;;;;5050196;28;20203;-76
2023/04/09 03:55:53;;;;;;;12.93;11.53;;;2.40;99.90;;;;;;5031944;28;20559;-76
2023/04/09 03:58:19;;;;;;;11.70;10.30;;;2.40;99.90;;;;;;5047239;28;20188;-76
2023/04/09 04:00:44;;;;;;;12.00;10.70;;;2.40;99.90;;;;;;5050218;28;20194;-75
2023/04/09 04:03:11;;;;;;;13.53;11.57;;;2.40;99.90;;;;;;5039257;28;20613;-75
2023/04/09 04:05:36;;;;;;;13.40;10.97;;;2.40;99.90;;;;;;5044861;28;20188;-75
2023/04/09 04:08:02;;;;;;;14.80;12.07;;;2.50;99.90;;;;;;5049914;28;20191;-75
2023/04/09 04:10:27;;;;;;;13.80;12.35;;;2.50;99.90;;;;;;5047178;28;20251;-76
2023/04/09 04:12:53;;;;;;;14.57;12.05;;;2.60;99.90;;;;;;5057311;28;20222;-75
2023/04/09 04:15:19;;;;;;;13.18;11.27;;;2.60;99.90;;;;;;5051950;28;20176;-75
2023/04/09 04:17:45;;;;;;;13.80;11.90;;;2.60;99.90;;;;;;5049738;28;20195;-75
2023/04/09 04:20:10;;;;;;;13.07;11.48;;;2.60;99.90;;;;;;5040979;28;20192;-75
2023/04/09 04:22:36;;;;;;;14.03;11.90;;;2.60;99.90;;;;;;5046900;28;20194;-75
2023/04/09 04:25:03;;;;;;;13.40;11.37;;;2.60;99.90;;;;;;5051117;28;20217;-75
2023/04/09 04:27:29;;;;;;;12.83;10.73;;;2.60;99.90;;;;;;5050255;28;20199;-75
2023/04/09 04:29:57;;;;;;;14.57;11.80;;;2.70;99.90;;;;;;5035085;28;20214;-74
2023/04/09 04:32:23;;;;;;;13.20;11.27;;;2.70;99.90;;;;;;5048498;28;20172;-77
2023/04/09 04:34:49;;;;;;;13.68;11.80;;;2.80;99.90;;;;;;5050678;28;20206;-76
2023/04/09 04:37:14;;;;;;;13.43;11.30;;;2.80;99.90;;;;;;5049284;28;20259;-76
2023/04/09 04:39:40;;;;;;;12.53;11.20;;;2.70;99.90;;;;;;5044302;28;20279;-77
2023/04/09 04:42:06;;;;;;;13.70;12.07;;;2.60;99.90;;;;;;5056883;28;20594;-77
2023/04/09 04:44:31;;;;;;;11.95;10.75;;;2.60;99.90;;;;;;5048829;28;20212;-77
2023/04/09 04:46:57;;;;;;;13.30;11.63;;;2.60;99.90;;;;;;5052275;28;20198;-77
2023/04/09 04:49:22;;;;;;;12.27;10.77;;;2.60;99.90;;;;;;5053509;28;20536;-76
2023/04/09 04:51:48;;;;;;;11.70;10.40;;;2.50;99.90;;;;;;5050017;28;20359;-76
2023/04/09 04:54:13;;;;;;;12.83;11.00;;;2.50;99.90;;;;;;5035423;28;20286;-76
2023/04/09 04:56:40;;;;;;;11.97;10.23;;;2.50;99.90;;;;;;5050644;28;20240;-76
2023/04/09 04:59:06;;;;;;;12.85;11.52;;;2.50;99.90;;;;;;5048261;28;20654;-76
2023/04/09 05:01:31;;;;;;;15.33;11.67;;;2.50;99.90;;;;;;5031941;28;20204;-74
2023/04/09 05:03:57;;;;;;;13.00;10.98;;;2.50;99.90;;;;;;5053859;28;20203;-76
2023/04/09 05:06:23;;;;;;;14.27;12.00;;;2.50;99.90;;;;;;5059433;28;20240;-76
2023/04/09 05:08:48;;;;;;;12.57;11.05;;;2.50;99.90;;;;;;5051643;28;20605;-75
2023/04/09 05:11:15;;;;;;;14.57;12.37;;;2.60;99.90;;;;;;5054079;28;20233;-75
2023/04/09 05:13:41;;;;;;;13.90;12.37;;;2.70;99.90;;;;;;5058228;28;20195;-74
2023/04/09 05:16:07;;;;;;;16.03;13.27;;;2.80;99.90;;;;;;5029338;28;20175;-75
2023/04/09 05:18:32;;;;;;;15.43;13.20;;;2.80;99.90;;;;;;5051328;28;20176;-75
2023/04/09 05:20:58;;;;;;;16.30;14.25;;;3.00;99.90;;;;;;5049797;28;20818;-75
2023/04/09 05:23:23;;;;;;;16.17;13.37;;;3.00;99.90;;;;;;5033253;28;20196;-76
2023/04/09 05:25:49;;;;;;;18.60;14.25;;;3.10;99.90;;;;;;5032258;28;20198;-75
2023/04/09 05:28:18;;;;;;;16.05;14.35;;;3.10;99.90;;;;;;5038003;28;20187;-78
2023/04/09 05:30:46;;;;;;;17.93;14.63;;;3.20;99.90;;;;;;5055426;28;20230;-75
2023/04/09 05:33:12;;;;;;;18.27;15.43;;;3.20;99.90;;;;;;5035962;28;20191;-74
2023/04/09 05:35:38;;;;;;;20.00;16.43;;;3.20;99.90;;;;;;5037435;28;20275;-75
2023/04/09 05:38:04;;;;;;;17.80;14.13;;;3.20;99.90;;;;;;5059543;28;20222;-76
2023/04/09 05:40:30;;;;;;;18.20;15.13;;;3.20;99.90;;;;;;5052138;28;20662;-75
2023/04/09 05:42:55;;;;;;;17.35;15.07;;;3.20;99.90;;;;;;5051358;28;20187;-75
2023/04/09 05:45:21;;;;;;;17.67;14.23;;;3.30;99.90;;;;;;5055555;28;20627;-75
2023/04/09 05:47:47;;;;;;;17.55;14.93;;;3.30;99.90;;;;;;5051812;28;20280;-76
2023/04/09 05:50:13;;;;;;;18.38;15.68;;;3.30;99.90;;;;;;5043047;28;20290;-76
2023/04/09 05:52:38;;;;;;;18.45;16.00;;;3.40;99.90;;;;;;5054113;28;20176;-76
2023/04/09 05:55:05;;;;;;;15.52;13.82;;;3.50;99.90;;;;;;5052835;28;20628;-75
2023/04/09 05:57:31;;;;;;;16.52;13.93;;;3.50;99.90;;;;;;5038150;28;20183;-76
2023/04/09 05:59:57;;;;;;;18.20;14.85;;;3.60;99.90;;;;;;5036405;28;20177;-76
2023/04/09 06:02:23;;;;;;;17.85;13.85;;;3.60;99.90;;;;;;5050987;28;20239;-74
2023/04/09 06:04:49;;;;;;;17.20;14.55;;;3.70;99.90;;;;;;5049368;28;20197;-74
2023/04/09 06:07:15;;;;;;;14.80;13.20;;;3.70;99.90;;;;;;5034095;28;20187;-76
2023/04/09 06:09:43;;;;;;;18.27;15.23;;;3.70;99.90;;;;;;5054464;28;20207;-75
2023/04/09 06:12:08;;;;;;;18.33;15.35;;;3.70;99.90;;;;;;5058499;28;20214;-76
2023/04/09 06:14:34;;;;;;;17.27;15.40;;;3.70;99.90;;;;;;5060638;28;20689;-75
2023/04/09 06:17:00;;;;;;;17.70;14.77;;;3.70;99.90;;;;;;5055643;28;20176;-76
2023/04/09 06:19:26;;;;;;;20.48;16.73;;;3.90;99.90;;;;;;5054227;28;20216;-75
2023/04/09 06:21:51;;;;;;;18.13;14.82;;;4.00;99.90;;;;;;5040458;28;20271;-74
2023/04/09 06:24:17;;;;;;;17.17;15.05;;;4.30;99.90;;;;;;5057431;28;20199;-76
2023/04/09 06:26:42;;;;;;;17.77;15.52;;;4.50;99.90;;;;;;5053449;28;20223;-76
2023/04/09 06:29:08;;;;;;;19.15;15.70;;;4.50;99.90;;;;;;5053347;28;20227;-77
2023/04/09 06:31:33;;;;;;;17.00;14.35;;;4.60;99.90;;;;;;5051608;28;20172;-77
2023/04/09 06:33:59;;;;;;;17.38;15.30;;;4.70;99.90;;;;;;5052753;28;20825;-77
2023/04/09 06:36:26;;;;;;;17.40;15.05;;;4.60;99.90;;;;;;5050594;28;20235;-77
2023/04/09 06:38:52;;;;;;;16.45;14.63;;;4.50;99.90;;;;;;5040248;28;20263;-78
2023/04/09 06:41:21;;;;;;;20.20;16.23;;;4.50;99.90;;;;;;5042614;28;20195;-77
2023/04/09 06:43:47;;;;;;;18.40;14.90;;;4.50;99.90;;;;;;5050829;28;20226;-77
2023/04/09 06:46:16;;;;;;;18.45;15.57;;;4.70;99.90;;;;;;5048545;28;20638;-76
2023/04/09 06:48:43;;;;;;;18.65;16.50;;;4.90;99.90;;;;;;5049478;28;20200;-77
2023/04/09 06:51:13;;;;;;;17.50;14.73;;;5.10;99.90;;;;;;5052449;28;20639;-77
2023/04/09 06:53:39;;;;;;;19.25;15.93;;;5.30;99.90;;;;;;5052814;28;20204;-78
2023/04/09 06:56:05;;;;;;;21.33;17.40;;;5.50;99.90;;;;;;5052683;28;20179;-78
2023/04/09 06:58:31;;;;;;;23.73;18.33;;;5.60;99.90;;;;;;5054111;28;20198;-79
2023/04/09 07:00:56;;;;;;;21.40;17.65;;;5.80;99.90;;;;;;5057667;28;20660;-77
2023/04/09 07:03:22;;;;;;;22.13;17.80;;;5.80;99.90;;;;;;5055242;28;20262;-77
2023/04/09 07:05:48;;;;;;;21.27;16.95;;;6.10;99.90;;;;;;5056282;28;20191;-78
2023/04/09 07:08:14;;;;;;;21.10;17.45;;;6.10;99.90;;;;;;5038313;28;20781;-79
2023/04/09 07:10:40;;;;;;;23.42;18.77;;;6.10;99.90;;;;;;5046587;28;20239;-79
2023/04/09 07:13:05;;;;;;;22.75;18.20;;;6.40;99.90;;;;;;5049084;28;20211;-79
2023/04/09 07:15:31;;;;;;;22.58;18.83;;;6.80;99.90;;;;;;5053929;28;20180;-81
2023/04/09 07:17:57;;;;;;;22.25;18.30;;;7.10;99.90;;;;;;5053269;28;20196;-79
2023/04/09 07:20:23;;;;;;;21.88;18.67;;;7.10;99.90;;;;;;5050936;28;20187;-79
2023/04/09 07:22:48;;;;;;;23.13;18.35;;;7.10;99.90;;;;;;5054332;28;20193;-80
2023/04/09 07:25:15;;;;;;;21.98;18.83;;;7.30;99.90;;;;;;5046889;28;20263;-78
2023/04/09 07:27:41;;;;;;;19.63;17.08;;;7.70;99.90;;;;;;5041147;28;20238;-79
2023/04/09 07:30:09;;;;;;;18.65;16.42;;;7.80;99.90;;;;;;5046338;28;20219;-78
2023/04/09 07:32:35;;;;;;;19.52;16.75;;;8.20;99.90;;;;;;5031446;28;20658;-78
2023/04/09 07:35:04;;;;;;;20.38;16.70;;;8.60;99.90;;;;;;5051036;28;20247;-79
2023/04/09 07:37:30;;;;;;;17.95;15.98;;;8.80;99.90;;;;;;5052642;28;20722;-79
2023/04/09 07:39:55;;;;;;;19.88;17.75;;;9.10;99.90;;;;;;5054481;28;20184;-78
2023/04/09 07:42:21;;;;;;;20.95;17.17;;;9.50;99.90;;;;;;5034475;28;20278;-79
2023/04/09 07:44:47;;;;;;;20.70;17.65;;;9.00;99.90;;;;;;5054927;28;20204;-79
2023/04/09 07:47:13;;;;;;;21.02;17.90;;;9.10;99.90;;;;;;5054423;28;20175;-78
2023/04/09 07:49:39;;;;;;;20.35;18.13;;;9.00;99.90;;;;;;5045782;28;20201;-78
2023/04/09 07:52:05;;;;;;;23.63;18.67;;;9.20;99.90;;;;;;5051863;28;20203;-78
2023/04/09 07:54:31;;;;;;;20.48;17.63;;;9.40;99.90;;;;;;5051317;28;20192;-79
2023/04/09 07:56:57;;;;;;;21.35;17.73;;;9.40;99.90;;;;;;5050576;28;20173;-79
2023/04/09 07:59:23;;;;;;;19.85;17.42;;;9.20;99.90;;;;;;5050563;28;20549;-79
2023/04/09 08:01:49;;;;;;;20.63;17.48;;;9.60;99.90;;;;;;5046633;28;20184;-78
2023/04/09 08:04:15;;;;;;;20.95;17.98;;;10.10;99.90;;;;;;5050273;28;20742;-79
2023/04/09 08:06:40;;;;;;;22.20;17.20;;;10.20;99.90;;;;;;5051157;28;20184;-78
2023/04/09 08:09:06;;;;;;;18.85;16.90;;;9.80;99.90;;;;;;5051343;28;20253;-79
2023/04/09 08:11:32;;;;;;;20.88;17.77;;;9.70;99.90;;;;;;5056195;28;20172;-78
2023/04/09 08:14:00;;;;;;;18.80;16.75;;;9.10;99.90;;;;;;5049378;28;20204;-78
2023/04/09 08:16:26;;;;;;;21.40;17.55;;;9.10;99.90;;;;;;5048214;28;20638;-78
2023/04/09 08:18:52;;;;;;;20.33;18.13;;;8.60;99.90;;;;;;5040450;28;20199;-78
2023/04/09 08:21:18;;;;;;;23.65;18.02;;;8.60;99.90;;;;;;5047932;28;20191;-78
2023/04/09 08:23:44;;;;;;;19.08;16.83;;;8.50;99.90;;;;;;5049117;28;20265;-78
2023/04/09 08:26:10;;;;;;;18.45;15.75;;;8.40;99.90;;;;;;5047486;28;20270;-77
2023/04/09 08:28:36;;;;;;;21.27;17.88;;;8.60;99.90;;;;;;5053938;28;20200;-78
2023/04/09 08:31:01;;;;;;;22.02;18.75;;;8.50;99.90;;;;;;5044786;28;20195;-79
2023/04/09 08:33:27;;;;;;;19.80;16.92;;;8.40;99.90;;;;;;5043421;28;20204;-78
2023/04/09 08:35:53;;;;;;;22.40;19.17;;;8.30;99.90;;;;;;5047216;28;20267;-79
2023/04/09 08:38:19;;;;;;;20.42;17.83;;;8.70;99.90;;;;;;5063378;28;20172;-78
2023/04/09 08:40:45;;;;;;;23.30;18.10;;;9.10;99.90;;;;;;5060688;28;20206;-79
2023/04/09 08:43:14;;;;;;;19.73;17.05;;;9.40;99.90;;;;;;5056233;28;20199;-79
2023/04/09 08:45:41;;;;;;;19.13;16.95;;;9.50;99.90;;;;;;5039201;28;20178;-79
2023/04/09 08:48:09;;;;;;;18.60;16.67;;;9.60;99.90;;;;;;5046802;28;20639;-79
2023/04/09 08:50:35;;;;;;;16.85;14.85;;;9.60;99.90;;;;;;5061633;28;20203;-79
2023/04/09 08:53:02;;;;;;;18.20;16.05;;;10.20;99.90;;;;;;5050135;28;20201;-80
2023/04/09 08:55:30;;;;;;;16.63;14.88;;;10.80;99.90;;;;;;5048456;28;20491;-80
2023/04/09 08:57:57;;;;;;;17.13;14.95;;;11.00;99.90;;;;;;5043826;28;20186;-79
2023/04/09 09:00:23;;;;;;;17.33;15.55;;;11.00;99.90;;;;;;5064909;28;20175;-79
2023/04/09 09:03:06;;;;;;;18.55;16.25;;;10.70;99.90;;;;;;5049998;28;20192;-79
2023/04/09 09:05:41;;;;;;;18.55;15.90;;;10.50;99.90;;;;;;5066733;28;20229;-79
2023/04/09 09:08:08;;;;;;;17.38;14.98;;;10.20;99.90;;;;;;5065139;28;20179;-79
2023/04/09 09:10:39;;;;;;;16.40;14.80;;;10.70;99.90;;;;;;5047049;28;20199;-79
2023/04/09 09:13:23;;;;;;;17.83;15.02;;;10.80;99.90;;;;;;5068098;28;20195;-79
2023/04/09 09:15:53;;;;;;;16.63;14.93;;;11.10;99.90;;;;;;5067097;28;20728;-82
2023/04/09 09:18:21;;;;;;;17.25;15.50;;;11.10;99.90;;;;;;5057435;28;20235;-79
2023/04/09 09:20:50;;;;;;;17.15;15.35;;;11.30;99.90;;;;;;5049678;28;20196;-79
2023/04/09 09:23:36;;;;;;;17.45;15.55;;;11.80;99.90;;;;;;5065826;28;20199;-79
2023/04/09 09:26:17;;;;;;;19.10;16.52;;;12.10;99.90;;;;;;5048979;28;20287;-80
2023/04/09 09:28:44;;;;;;;16.67;14.95;;;13.10;99.90;;;;;;5070939;28;20232;-79
2023/04/09 09:31:11;;;;;;;16.70;15.07;;;14.50;99.90;;;;;;5050225;28;20168;-80
2023/04/09 09:33:37;;;;;;;16.42;14.82;;;14.70;99.90;;;;;;5066179;28;20192;-80
2023/04/09 09:36:03;;;;;;;16.17;14.48;;;14.90;99.90;;;;;;5051649;28;20547;-79
2023/04/09 09:38:29;;;;;;;15.80;14.20;;;14.90;99.40;;;;;;5053660;28;20180;-79
2023/04/09 09:40:55;;;;;;;15.52;14.02;;;14.30;99.90;;;;;;5066123;28;20195;-80
2023/04/09 09:43:21;;;;;;;15.57;14.07;;;13.60;99.90;;;;;;5057899;28;20199;-79
2023/04/09 09:45:47;;;;;;;15.55;14.02;;;12.80;99.90;;;;;;5063197;28;20188;-79
2023/04/09 09:48:14;;;;;;;16.42;14.82;;;12.10;99.90;;;;;;5066223;28;20187;-80
2023/04/09 09:50:57;;;;;;;16.95;15.23;;;12.00;99.90;;;;;;5059002;28;20202;-79
2023/04/09 09:53:26;;;;;;;16.65;14.45;;;11.90;99.90;;;;;;5065815;28;20196;-80
2023/04/09 09:55:56;;;;;;;14.25;12.75;;;12.60;99.90;;;;;;5066010;28;20192;-81
2023/04/09 09:58:33;;;;;;;15.30;13.57;;;13.80;99.90;;;;;;5066990;28;20678;-79
2023/04/09 10:01:04;;;;;;;13.40;12.20;;;14.10;99.90;;;;;;5071791;28;20247;-80
2023/04/09 10:03:39;;;;;;;13.07;11.88;;;14.40;97.70;;;;;;5061522;28;20239;-79
2023/04/09 10:06:06;;;;;;;12.25;11.05;;;15.10;97.00;;;;;;5071621;28;20171;-79
2023/04/09 10:08:33;;;;;;;10.82;9.82;;;14.90;96.00;;;;;;5057119;28;20212;-79
2023/04/09 10:11:03;;;;;;;11.05;9.93;;;14.80;93.10;;;;;;5070559;28;20184;-79
2023/04/09 10:13:37;;;;;;;10.88;9.85;;;14.60;93.10;;;;;;5065819;28;20247;-80
2023/04/09 10:16:07;;;;;;;11.15;10.10;;;14.70;93.20;;;;;;5055254;28;20262;-79
2023/04/09 10:18:42;;;;;;;11.00;10.00;;;15.80;92.00;;;;;;5065149;28;20203;-79
2023/04/09 10:21:13;;;;;;;11.25;10.18;;;15.80;91.20;;;;;;5054453;28;20207;-79
2023/04/09 10:23:41;;;;;;;12.15;11.02;;;17.10;89.90;;;;;;5061996;28;20231;-81
2023/04/09 10:26:07;;;;;;;10.82;9.77;;;17.90;85.10;;;;;;5062133;28;20675;-79
2023/04/09 10:28:33;;;;;;;11.65;10.57;;;19.50;81.30;;;;;;5059349;28;20210;-79
2023/04/09 10:30:59;;;;;;;10.88;9.90;;;22.40;72.30;;;;;;5046912;28;20263;-79
2023/04/09 10:33:26;;;;;;;10.70;9.80;;;25.20;65.90;;;;;;5049644;28;20199;-79
2023/04/09 10:36:00;;;;;;;10.35;9.45;;;25.80;54.70;;;;;;5055109;28;20179;-80
2023/04/09 10:38:37;;;;;;;8.75;8.05;;;23.90;56.90;;;;;;5039344;28;20173;-79
2023/04/09 10:41:21;;;;;;;9.20;8.40;;;24.50;57.30;;;;;;5062973;28;20179;-79
2023/04/09 10:43:47;;;;;;;9.68;8.88;;;23.70;56.40;;;;;;5054042;28;20699;-80
2023/04/09 10:46:35;;;;;;;9.35;8.55;;;22.20;56.10;;;;;;5058938;28;20176;-79
2023/04/09 10:49:34;;;;;;;10.25;9.35;;;19.80;60.40;;;;;;5059713;28;20259;-80
2023/04/09 10:52:09;;;;;;;8.80;8.05;;;18.00;63.90;;;;;;5060770;28;20198;-79
2023/04/09 10:54:44;;;;;;;10.38;9.48;;;19.30;64.90;;;;;;5039960;28;20200;-79
2023/04/09 10:57:15;;;;;;;10.80;9.90;;;18.40;63.40;;;;;;5046129;28;20221;-82
2023/04/09 10:59:48;;;;;;;9.95;9.15;;;19.50;63.90;;;;;;5050763;28;20208;-79
2023/04/09 11:02:47;;;;;;;11.77;10.68;;;21.20;61.60;;;;;;5057991;28;20183;-80
2023/04/09 11:05:28;;;;;;;10.77;9.93;;;20.70;59.70;;;;;;5051435;28;20180;-79
2023/04/09 11:08:04;;;;;;;10.43;9.52;;;18.50;63.20;;;;;;5043212;28;20187;-79
2023/04/09 11:10:30;;;;;;;11.00;10.07;;;19.80;63.20;;;;;;5059571;28;20207;-79
2023/04/09 11:12:56;;;;;;;10.75;9.85;;;21.30;60.70;;;;;;5054473;28;20244;-79
2023/04/09 11:15:22;;;;;;;12.38;11.27;;;20.90;59.30;;;;;;5056183;28;20199;-80
2023/04/09 11:17:49;;;;;;;11.40;10.40;;;17.80;64.80;;;;;;5062901;28;20183;-79
2023/04/09 11:20:21;;;;;;;11.82;10.73;;;17.20;66.90;;;;;;5062213;28;20248;-82
2023/04/09 11:22:50;;;;;;;10.82;9.93;;;16.90;68.70;;;;;;5059484;28;20239;-79
2023/04/09 11:25:19;;;;;;;11.32;10.32;;;16.40;70.10;;;;;;5054793;28;20208;-80
2023/04/09 11:27:46;;;;;;;10.45;9.55;;;16.60;68.60;;;;;;5060521;28;20191;-79
2023/04/09 11:30:11;;;;;;;9.65;8.85;;;18.40;68.30;;;;;;5058050;28;20741;-80
2023/04/09 11:32:37;;;;;;;10.90;9.90;;;20.10;63.90;;;;;;5039077;28;20180;-79
2023/04/09 11:35:03;;;;;;;10.13;9.30;;;20.50;62.00;;;;;;5058360;28;20200;-79
2023/04/09 11:37:29;;;;;;;10.80;9.90;;;20.60;59.60;;;;;;5052280;28;20210;-79
2023/04/09 11:39:56;;;;;;;10.30;9.30;;;21.60;59.00;;;;;;5060305;28;20206;-79
2023/04/09 11:42:24;;;;;;;9.70;8.90;;;22.80;56.90;;;;;;5052683;28;20683;-79
2023/04/09 11:44:51;;;;;;;9.55;8.75;;;23.00;57.40;;;;;;5046228;28;20206;-79
2023/04/09 11:47:17;;;;;;;9.23;8.43;;;24.50;55.40;;;;;;5064829;28;20171;-79
2023/04/09 11:49:44;;;;;;;8.95;8.25;;;24.60;54.40;;;;;;5049226;28;20673;-79
2023/04/09 11:52:09;;;;;;;16.85;9.18;;;25.70;53.10;;;;;;5049907;28;20175;-79
2023/04/09 11:54:35;;;;;;;9.30;8.60;;;26.40;51.10;;;;;;5051378;28;20667;-79
2023/04/09 11:57:04;;;;;;;10.25;9.45;;;25.10;49.60;;;;;;5039787;28;20397;-79
2023/04/09 11:59:30;;;;;;;10.23;9.30;;;24.70;52.70;;;;;;5032740;28;20215;-79
2023/04/09 12:01:59;;;;;;;9.07;8.38;;;26.20;51.90;;;;;;5043434;28;20506;-79
2023/04/09 12:04:25;;;;;;;10.60;9.70;;;27.20;51.50;;;;;;5050679;28;20686;-78
2023/04/09 12:06:56;;;;;;;9.50;8.80;;;28.90;46.90;;;;;;5051254;28;20258;-77
2023/04/09 12:09:22;;;;;;;10.32;9.35;;;26.80;48.60;;;;;;5047082;28;20207;-76
2023/04/09 12:11:47;;;;;;;9.25;8.55;;;25.20;50.10;;;;;;5035963;28;20589;-77
2023/04/09 12:14:15;;;;;;;9.98;9.18;;;26.50;50.00;;;;;;5054801;28;20196;-77
2023/04/09 12:16:43;;;;;;;9.43;8.63;;;27.90;47.90;;;;;;5048825;28;20263;-78
2023/04/09 12:19:10;;;;;;;9.00;8.20;;;28.00;48.70;;;;;;5030178;28;20202;-77
2023/04/09 12:21:49;;;;;;;8.88;8.18;;;27.70;46.30;;;;;;5052205;28;20187;-77
2023/04/09 12:24:20;;;;;;;10.70;9.85;;;25.70;47.80;;;;;;5050806;28;20244;-77
2023/04/09 12:26:46;;;;;;;9.88;9.07;;;22.80;50.90;;;;;;5034493;28;20194;-79
2023/04/09 12:29:19;;;;;;;9.73;8.93;;;21.60;52.90;;;;;;5045104;28;20210;-79
2023/04/09 12:31:45;;;;;;;10.23;9.32;;;21.50;53.20;;;;;;5045209;28;20590;-80
2023/04/09 12:34:12;;;;;;;9.90;9.02;;;22.10;54.40;;;;;;5054451;28;20198;-80
2023/04/09 12:36:40;;;;;;;10.35;9.45;;;23.10;52.50;;;;;;5048027;28;20176;-80
2023/04/09 12:39:07;;;;;;;10.30;9.40;;;22.30;52.70;;;;;;5050152;28;20172;-79
2023/04/09 12:41:33;;;;;;;10.55;9.65;;;21.60;54.00;;;;;;5056298;28;20270;-79